Terminal Aerodrome Forecast
Issued by NWS Sterling, VA

Current Version | Previous Version | Graphics & Text | Print | Product List | Glossary Off
Versions: 1 2 3 4 5 6 7 8 9 10 11 12 13 14 15 16 17 18 19 20 21 22 23 24

000
FTUS41 KLWX 292326
TAFDCA
TAF
KDCA 292326Z 3000/3024 32006KT P6SM BKN200
     FM300200 09005KT P6SM BKN200
     FM300500 11005KT 4SM BR BKN010
     FM300900 09005KT 3SM BR OVC005
     FM301500 13005KT P6SM BKN020
     FM302000 15006KT P6SM BKN140=

USA.gov is the U.S. government's official web portal to all federal, state and local government web resources and services.